Winter Park, Colorado
Current Conditions -  °F | °C
As of 6:10 AM on Thursday 30 Oct 2014 (Local Time) from K0CO Reporting Station
Broken Clouds Broken Clouds  
Wind Chill:   Ceiling: 3300
Heat Index: 23°   Visibility: 10mi
Dew Point: 19°   Wind: 30mph
Humidity: 86%   Direction: 300°WNW
Pressure: 30.49"   Gusts: 43mph
Location:  39.89°N, 105.76°W
Report Text: K0CO 301210Z AUTO 30026G37KT 10SM BKN033 M05/M07 A3049 RMK AO2
Loading
Personal Weather Stations






























Interactive Weather Map
Tropical Storm Tracking
New forecast layout! Learn more

10-Day Weather Forecast

Advertisements
Track Severe Weather on mobile